Unicom:                    122.8

AWOS:                  118.275

Elevation           1458’ MSL

TPA:                   2500’ MSL

06/24:         5003’ L   75’ W

PAPI:       06/Left     24/Left

(Operate lights on unicom freq.)

Traffic Pattern: Left

Beacon: Sunset to Sunrise

Windsock: yes, lighted

Segmented Circle: No

 

Cleveland Center: 126.72/291.65

FSS: Altoona

[Source: ADDS]
METAR
KFKL 030404Z AUTO 31011G23KT 3/4SM -SN BR FEW004 BKN015 OVC038 M03/M05 A2991 RMK AO2 PRESRR P0000 FZRANO =
KFKL 030344Z 0304/0324 31015G25KT 4SM -SHSN OVC025 TEMPO 0304/0306 1/2SM SHSN OVC015 FM031800 31015G20KT P6SM BKN035
TAF
KFKL 030344Z 0304/0324 31015G25KT 4SM -SHSN OVC025 TEMPO 0304/0306 1/2SM SHSN OVC015 FM031800 31015G20KT P6SM BKN035 =
[Source: ADDS]
METAR
KDUJ 030353Z AUTO 26015G22KT 10SM OVC037 M01/M09 A2983 RMK AO2 SLP121 T10061094 =
KDUJ 030408Z 0304/0324 26012G20KT P6SM BKN040 FM030500 31015G25KT 4SM -SHSN OVC025 TEMPO 0305/0307 1/2SM SN FM031800 31015G20KT P6SM BKN035
TAF
KDUJ 030249Z 0303/0324 26012KT P6SM SCT035 WS002/25040KT FM030400 31015G25KT 4SM -SHSN OVC025 TEMPO 0304/0306 1/2SM SN FM031800 31015G20KT P6SM BKN035 =

Resources.


We are a PSI Computer Testing Facility.

To schedule an FAA exam, i.e. Private Pilot, Drone, Flight Instructor, Parachute Rigger you can schedule through CATS with the icon below, or call the airport at 814-226-9993.

Pilot Supplies.